RYR48XE LPFR-EGGD
Flight info
| Callsign | RYR48XE |
|---|---|
| Flight time | N/A |
| Altitude | 34000 |
| Route | ELVAR DCT BARDI DCT ZMR DCT NUBLO DCT RONSI DCT DELOG DCT NOVAN DCT NOZHU/N0438F290 DCT SHIRI DCT TOJAQ |
| Aircraft | B738/M-SDE2E3FGHIRWXY/LB1 |
Departure
| Time | 2026-04-28 19:38 |
|---|---|
| Airport | Faro - Gago Coutinho International Airport (LPFR) |
Arrival
| Time | N/A |
|---|---|
| Airport | Bristol Airport (EGGD) |
| Time | Latitude | Longitude | Altitude | Speed | Heading |
|---|---|---|---|---|---|
| 2026-04-28 19:17 | 37.01871 | -7.96563 | 19 ft | 0 kts | 10° |
| 2026-04-28 19:29 | 37.01857 | -7.96567 | 19 ft | 4 kts | 13° |
| 2026-04-28 19:29 | 37.01831 | -7.96577 | 20 ft | 4 kts | 25° |
| 2026-04-28 19:30 | 37.01809 | -7.96594 | 20 ft | 4 kts | 48° |
| 2026-04-28 19:30 | 37.01799 | -7.96619 | 20 ft | 3 kts | 99° |
| 2026-04-28 19:30 | 37.01800 | -7.96626 | 21 ft | 2 kts | 100° |
| 2026-04-28 19:33 | 37.01799 | -7.96617 | 19 ft | 2 kts | 100° |
| 2026-04-28 19:33 | 37.01794 | -7.96586 | 19 ft | 5 kts | 100° |
| 2026-04-28 19:33 | 37.01778 | -7.96537 | 20 ft | 6 kts | 135° |
| 2026-04-28 19:33 | 37.01731 | -7.96526 | 19 ft | 8 kts | 186° |
| 2026-04-28 19:34 | 37.01679 | -7.96538 | 19 ft | 7 kts | 190° |
| 2026-04-28 19:34 | 37.01631 | -7.96528 | 20 ft | 7 kts | 147° |
| 2026-04-28 19:34 | 37.01610 | -7.96470 | 19 ft | 8 kts | 100° |
| 2026-04-28 19:34 | 37.01601 | -7.96400 | 19 ft | 8 kts | 100° |
| 2026-04-28 19:35 | 37.01591 | -7.96332 | 19 ft | 8 kts | 100° |
| 2026-04-28 19:35 | 37.01581 | -7.96265 | 19 ft | 9 kts | 100° |
| 2026-04-28 19:35 | 37.01568 | -7.96178 | 21 ft | 12 kts | 100° |
| 2026-04-28 19:35 | 37.01554 | -7.96079 | 20 ft | 12 kts | 100° |
| 2026-04-28 19:36 | 37.01540 | -7.95981 | 19 ft | 11 kts | 100° |
| 2026-04-28 19:36 | 37.01524 | -7.95886 | 19 ft | 11 kts | 113° |
| 2026-04-28 19:36 | 37.01462 | -7.95843 | 18 ft | 11 kts | 183° |
| 2026-04-28 19:36 | 37.01388 | -7.95858 | 21 ft | 11 kts | 190° |
| 2026-04-28 19:37 | 37.01346 | -7.95907 | 21 ft | 8 kts | 279° |
| 2026-04-28 19:37 | 37.01354 | -7.95954 | 20 ft | 9 kts | 281° |
| 2026-04-28 19:37 | 37.01427 | -7.96469 | 23 ft | 90 kts | 279° |
| 2026-04-28 19:37 | 37.01573 | -7.97497 | 19 ft | 148 kts | 280° |
| 2026-04-28 19:38 | 37.01764 | -7.98884 | 367 ft | 170 kts | 279° |
| 2026-04-28 19:38 | 37.01984 | -8.00345 | 1128 ft | 172 kts | 280° |
| 2026-04-28 19:38 | 37.02207 | -8.01884 | 1662 ft | 189 kts | 280° |
| 2026-04-28 19:38 | 37.02436 | -8.03571 | 2185 ft | 205 kts | 279° |
| 2026-04-28 19:39 | 37.02694 | -8.05428 | 2605 ft | 225 kts | 280° |
| 2026-04-28 19:39 | 37.02969 | -8.07363 | 3313 ft | 224 kts | 281° |
| 2026-04-28 19:39 | 37.03245 | -8.09292 | 3980 ft | 226 kts | 283° |
| 2026-04-28 19:39 | 37.03909 | -8.11027 | 4640 ft | 222 kts | 316° |
| 2026-04-28 19:40 | 37.05173 | -8.12119 | 5165 ft | 228 kts | 335° |
| 2026-04-28 19:40 | 37.06786 | -8.12480 | 5345 ft | 251 kts | 6° |
| 2026-04-28 19:40 | 37.08587 | -8.12148 | 5724 ft | 270 kts | 9° |
| 2026-04-28 19:40 | 37.10478 | -8.11740 | 6318 ft | 281 kts | 10° |
| 2026-04-28 19:41 | 37.12434 | -8.11316 | 6971 ft | 288 kts | 9° |
| 2026-04-28 19:41 | 37.14419 | -8.10895 | 7722 ft | 291 kts | 9° |
| 2026-04-28 19:41 | 37.16427 | -8.10478 | 8469 ft | 295 kts | 8° |
| 2026-04-28 19:41 | 37.18470 | -8.10061 | 9160 ft | 300 kts | 8° |
| 2026-04-28 19:42 | 37.20549 | -8.09643 | 9893 ft | 304 kts | 8° |
| 2026-04-28 19:42 | 37.22653 | -8.09223 | 10310 ft | 319 kts | 8° |